sensor_id;sensor_type;location;lat;lon;timestamp;P1;durP1;ratioP1;P2;durP2;ratioP2
25870;SDS011;13689;48.590;7.752;2022-10-18T00:01:04;8.20;;;3.47;;
25870;SDS011;13689;48.590;7.752;2022-10-18T00:03:30;6.07;;;2.60;;
25870;SDS011;13689;48.590;7.752;2022-10-18T00:05:57;8.05;;;2.67;;
25870;SDS011;13689;48.590;7.752;2022-10-18T00:08:23;4.72;;;2.67;;
25870;SDS011;13689;48.590;7.752;2022-10-18T00:10:49;4.60;;;2.67;;
25870;SDS011;13689;48.590;7.752;2022-10-18T00:13:15;7.43;;;2.85;;
25870;SDS011;13689;48.590;7.752;2022-10-18T00:15:48;5.32;;;3.00;;
25870;SDS011;13689;48.590;7.752;2022-10-18T00:18:15;8.38;;;3.08;;
25870;SDS011;13689;48.590;7.752;2022-10-18T00:20:41;8.23;;;3.38;;
25870;SDS011;13689;48.590;7.752;2022-10-18T00:23:06;6.22;;;3.20;;
25870;SDS011;13689;48.590;7.752;2022-10-18T00:25:32;6.85;;;3.10;;
25870;SDS011;13689;48.590;7.752;2022-10-18T00:27:58;6.95;;;3.38;;
25870;SDS011;13689;48.590;7.752;2022-10-18T00:30:23;14.07;;;3.63;;
25870;SDS011;13689;48.590;7.752;2022-10-18T00:32:49;6.43;;;3.53;;
25870;SDS011;13689;48.590;7.752;2022-10-18T00:35:15;13.18;;;3.42;;
25870;SDS011;13689;48.590;7.752;2022-10-18T00:37:40;6.15;;;3.55;;
25870;SDS011;13689;48.590;7.752;2022-10-18T00:40:06;6.60;;;3.63;;
25870;SDS011;13689;48.590;7.752;2022-10-18T00:42:33;7.28;;;3.40;;
25870;SDS011;13689;48.590;7.752;2022-10-18T00:45:02;10.32;;;3.58;;
25870;SDS011;13689;48.590;7.752;2022-10-18T00:47:38;7.18;;;3.28;;
25870;SDS011;13689;48.590;7.752;2022-10-18T00:50:05;10.95;;;3.05;;
25870;SDS011;13689;48.590;7.752;2022-10-18T00:52:52;10.40;;;3.97;;
25870;SDS011;13689;48.590;7.752;2022-10-18T00:57:48;5.82;;;3.67;;
25870;SDS011;13689;48.590;7.752;2022-10-18T01:00:14;8.88;;;3.55;;
25870;SDS011;13689;48.590;7.752;2022-10-18T01:02:41;15.70;;;3.47;;
25870;SDS011;13689;48.590;7.752;2022-10-18T01:05:09;9.43;;;2.97;;
25870;SDS011;13689;48.590;7.752;2022-10-18T01:10:33;12.02;;;3.20;;
25870;SDS011;13689;48.590;7.752;2022-10-18T01:18:43;8.40;;;3.00;;
25870;SDS011;13689;48.590;7.752;2022-10-18T01:30:29;8.43;;;3.70;;
25870;SDS011;13689;48.590;7.752;2022-10-18T01:33:01;11.38;;;4.03;;
25870;SDS011;13689;48.590;7.752;2022-10-18T01:35:50;8.25;;;3.72;;
25870;SDS011;13689;48.590;7.752;2022-10-18T01:38:26;11.77;;;4.22;;
25870;SDS011;13689;48.590;7.752;2022-10-18T01:40:55;9.15;;;3.45;;
25870;SDS011;13689;48.590;7.752;2022-10-18T01:43:22;5.43;;;3.10;;
25870;SDS011;13689;48.590;7.752;2022-10-18T01:45:49;9.70;;;3.65;;
25870;SDS011;13689;48.590;7.752;2022-10-18T01:48:17;8.73;;;3.63;;
25870;SDS011;13689;48.590;7.752;2022-10-18T01:50:46;9.30;;;3.47;;
25870;SDS011;13689;48.590;7.752;2022-10-18T01:53:22;11.00;;;3.78;;
25870;SDS011;13689;48.590;7.752;2022-10-18T01:56:00;9.70;;;3.72;;
25870;SDS011;13689;48.590;7.752;2022-10-18T01:58:36;12.32;;;3.38;;
25870;SDS011;13689;48.590;7.752;2022-10-18T02:01:12;8.30;;;3.37;;
25870;SDS011;13689;48.590;7.752;2022-10-18T02:03:53;10.20;;;3.22;;
25870;SDS011;13689;48.590;7.752;2022-10-18T02:06:22;5.63;;;3.20;;
25870;SDS011;13689;48.590;7.752;2022-10-18T02:09:10;4.03;;;2.78;;
25870;SDS011;13689;48.590;7.752;2022-10-18T02:11:41;7.57;;;3.97;;
25870;SDS011;13689;48.590;7.752;2022-10-18T02:14:10;10.90;;;3.53;;
25870;SDS011;13689;48.590;7.752;2022-10-18T02:16:40;7.28;;;3.25;;
25870;SDS011;13689;48.590;7.752;2022-10-18T02:19:45;6.90;;;3.28;;
25870;SDS011;13689;48.590;7.752;2022-10-18T02:22:14;5.90;;;3.10;;
25870;SDS011;13689;48.590;7.752;2022-10-18T02:24:47;4.72;;;3.10;;
25870;SDS011;13689;48.590;7.752;2022-10-18T02:27:17;4.22;;;3.30;;
25870;SDS011;13689;48.590;7.752;2022-10-18T02:29:43;12.32;;;3.00;;
25870;SDS011;13689;48.590;7.752;2022-10-18T02:32:10;10.02;;;2.88;;
25870;SDS011;13689;48.590;7.752;2022-10-18T02:35:34;7.72;;;3.08;;
25870;SDS011;13689;48.590;7.752;2022-10-18T02:37:56;7.82;;;3.63;;
25870;SDS011;13689;48.590;7.752;2022-10-18T02:40:22;7.65;;;3.28;;
25870;SDS011;13689;48.590;7.752;2022-10-18T02:42:52;7.65;;;3.33;;
25870;SDS011;13689;48.590;7.752;2022-10-18T02:45:19;8.05;;;3.03;;
25870;SDS011;13689;48.590;7.752;2022-10-18T02:47:45;6.32;;;2.83;;
25870;SDS011;13689;48.590;7.752;2022-10-18T02:50:11;5.72;;;3.00;;
25870;SDS011;13689;48.590;7.752;2022-10-18T02:52:37;5.53;;;3.03;;
25870;SDS011;13689;48.590;7.752;2022-10-18T02:55:04;6.32;;;3.75;;
25870;SDS011;13689;48.590;7.752;2022-10-18T02:57:30;7.27;;;3.40;;
25870;SDS011;13689;48.590;7.752;2022-10-18T02:59:56;6.10;;;2.80;;
25870;SDS011;13689;48.590;7.752;2022-10-18T03:02:22;9.75;;;2.67;;
25870;SDS011;13689;48.590;7.752;2022-10-18T03:04:47;5.80;;;3.22;;
25870;SDS011;13689;48.590;7.752;2022-10-18T03:07:13;4.03;;;3.03;;
25870;SDS011;13689;48.590;7.752;2022-10-18T03:09:39;8.00;;;3.20;;
25870;SDS011;13689;48.590;7.752;2022-10-18T03:12:04;5.50;;;3.15;;
25870;SDS011;13689;48.590;7.752;2022-10-18T03:14:30;8.85;;;3.13;;
25870;SDS011;13689;48.590;7.752;2022-10-18T03:16:55;5.40;;;3.85;;
25870;SDS011;13689;48.590;7.752;2022-10-18T03:19:21;5.10;;;3.08;;
25870;SDS011;13689;48.590;7.752;2022-10-18T03:21:47;9.82;;;3.30;;
25870;SDS011;13689;48.590;7.752;2022-10-18T03:24:12;8.63;;;3.38;;
25870;SDS011;13689;48.590;7.752;2022-10-18T03:26:38;9.25;;;3.20;;
25870;SDS011;13689;48.590;7.752;2022-10-18T03:29:04;6.47;;;3.03;;
25870;SDS011;13689;48.590;7.752;2022-10-18T03:31:29;11.68;;;3.38;;
25870;SDS011;13689;48.590;7.752;2022-10-18T03:33:55;9.75;;;2.80;;
25870;SDS011;13689;48.590;7.752;2022-10-18T03:36:21;8.57;;;2.70;;
25870;SDS011;13689;48.590;7.752;2022-10-18T03:38:46;8.23;;;2.92;;
25870;SDS011;13689;48.590;7.752;2022-10-18T03:41:12;3.25;;;2.92;;
25870;SDS011;13689;48.590;7.752;2022-10-18T03:43:37;8.20;;;3.17;;
25870;SDS011;13689;48.590;7.752;2022-10-18T03:46:03;6.55;;;3.55;;
25870;SDS011;13689;48.590;7.752;2022-10-18T03:48:29;7.90;;;3.10;;
25870;SDS011;13689;48.590;7.752;2022-10-18T03:50:54;4.47;;;3.25;;
25870;SDS011;13689;48.590;7.752;2022-10-18T03:53:20;8.88;;;3.35;;
25870;SDS011;13689;48.590;7.752;2022-10-18T03:55:49;8.80;;;3.58;;
25870;SDS011;13689;48.590;7.752;2022-10-18T03:58:16;5.50;;;3.20;;
25870;SDS011;13689;48.590;7.752;2022-10-18T04:00:41;8.40;;;3.63;;
25870;SDS011;13689;48.590;7.752;2022-10-18T04:03:07;4.82;;;3.38;;
25870;SDS011;13689;48.590;7.752;2022-10-18T04:05:32;5.25;;;3.33;;
25870;SDS011;13689;48.590;7.752;2022-10-18T04:07:59;6.15;;;3.83;;
25870;SDS011;13689;48.590;7.752;2022-10-18T04:10:24;5.28;;;3.47;;
25870;SDS011;13689;48.590;7.752;2022-10-18T04:12:50;9.68;;;3.95;;
25870;SDS011;13689;48.590;7.752;2022-10-18T04:15:16;7.70;;;3.50;;
25870;SDS011;13689;48.590;7.752;2022-10-18T04:17:41;9.55;;;3.75;;
25870;SDS011;13689;48.590;7.752;2022-10-18T04:20:07;12.48;;;3.90;;
25870;SDS011;13689;48.590;7.752;2022-10-18T04:22:33;4.40;;;3.30;;
25870;SDS011;13689;48.590;7.752;2022-10-18T04:24:59;7.72;;;3.40;;
25870;SDS011;13689;48.590;7.752;2022-10-18T04:27:25;11.05;;;3.55;;
25870;SDS011;13689;48.590;7.752;2022-10-18T04:29:50;6.05;;;3.30;;
25870;SDS011;13689;48.590;7.752;2022-10-18T04:32:16;7.18;;;3.13;;
25870;SDS011;13689;48.590;7.752;2022-10-18T04:34:42;5.18;;;3.10;;
25870;SDS011;13689;48.590;7.752;2022-10-18T04:37:07;7.82;;;2.97;;
25870;SDS011;13689;48.590;7.752;2022-10-18T04:39:33;13.77;;;3.47;;
25870;SDS011;13689;48.590;7.752;2022-10-18T04:41:59;13.63;;;3.47;;
25870;SDS011;13689;48.590;7.752;2022-10-18T04:44:24;6.50;;;3.10;;
25870;SDS011;13689;48.590;7.752;2022-10-18T04:46:50;6.25;;;3.47;;
25870;SDS011;13689;48.590;7.752;2022-10-18T04:49:16;4.25;;;2.95;;
25870;SDS011;13689;48.590;7.752;2022-10-18T04:51:41;7.43;;;2.90;;
25870;SDS011;13689;48.590;7.752;2022-10-18T04:54:07;7.88;;;4.03;;
25870;SDS011;13689;48.590;7.752;2022-10-18T04:56:32;7.93;;;3.10;;
25870;SDS011;13689;48.590;7.752;2022-10-18T04:58:58;5.65;;;3.00;;
25870;SDS011;13689;48.590;7.752;2022-10-18T05:01:25;9.38;;;3.17;;
25870;SDS011;13689;48.590;7.752;2022-10-18T05:03:51;3.92;;;2.90;;
25870;SDS011;13689;48.590;7.752;2022-10-18T05:06:18;8.75;;;2.90;;
25870;SDS011;13689;48.590;7.752;2022-10-18T05:08:44;8.07;;;2.80;;
25870;SDS011;13689;48.590;7.752;2022-10-18T05:11:10;4.90;;;3.05;;
25870;SDS011;13689;48.590;7.752;2022-10-18T05:13:35;8.85;;;2.63;;
25870;SDS011;13689;48.590;7.752;2022-10-18T05:16:02;9.55;;;2.88;;
25870;SDS011;13689;48.590;7.752;2022-10-18T05:18:28;6.68;;;2.60;;
25870;SDS011;13689;48.590;7.752;2022-10-18T05:20:54;8.10;;;3.03;;
25870;SDS011;13689;48.590;7.752;2022-10-18T05:23:20;5.50;;;2.88;;
25870;SDS011;13689;48.590;7.752;2022-10-18T05:25:46;4.10;;;3.10;;
25870;SDS011;13689;48.590;7.752;2022-10-18T05:28:12;5.25;;;2.75;;
25870;SDS011;13689;48.590;7.752;2022-10-18T05:30:38;13.68;;;3.58;;
25870;SDS011;13689;48.590;7.752;2022-10-18T05:33:05;12.55;;;3.10;;
25870;SDS011;13689;48.590;7.752;2022-10-18T05:35:31;5.80;;;3.60;;
25870;SDS011;13689;48.590;7.752;2022-10-18T05:37:57;10.10;;;2.80;;
25870;SDS011;13689;48.590;7.752;2022-10-18T05:40:22;4.53;;;3.00;;
25870;SDS011;13689;48.590;7.752;2022-10-18T05:42:51;5.25;;;3.38;;
25870;SDS011;13689;48.590;7.752;2022-10-18T05:45:17;9.57;;;4.68;;
25870;SDS011;13689;48.590;7.752;2022-10-18T05:47:42;20.25;;;3.80;;
25870;SDS011;13689;48.590;7.752;2022-10-18T05:50:08;10.60;;;2.95;;
25870;SDS011;13689;48.590;7.752;2022-10-18T05:52:34;5.30;;;2.63;;
25870;SDS011;13689;48.590;7.752;2022-10-18T05:55:00;8.13;;;3.08;;
25870;SDS011;13689;48.590;7.752;2022-10-18T05:57:25;14.40;;;3.40;;
25870;SDS011;13689;48.590;7.752;2022-10-18T05:59:51;14.90;;;3.05;;
25870;SDS011;13689;48.590;7.752;2022-10-18T06:02:17;7.95;;;3.00;;
25870;SDS011;13689;48.590;7.752;2022-10-18T06:04:42;8.05;;;2.78;;
25870;SDS011;13689;48.590;7.752;2022-10-18T06:07:09;14.63;;;3.28;;
25870;SDS011;13689;48.590;7.752;2022-10-18T06:09:35;4.28;;;2.75;;
25870;SDS011;13689;48.590;7.752;2022-10-18T06:12:02;5.22;;;2.67;;
25870;SDS011;13689;48.590;7.752;2022-10-18T06:14:28;10.48;;;3.55;;
25870;SDS011;13689;48.590;7.752;2022-10-18T06:16:54;7.22;;;2.95;;
25870;SDS011;13689;48.590;7.752;2022-10-18T06:19:21;4.10;;;3.13;;
25870;SDS011;13689;48.590;7.752;2022-10-18T06:21:47;6.57;;;3.05;;
25870;SDS011;13689;48.590;7.752;2022-10-18T06:24:13;7.82;;;3.22;;
25870;SDS011;13689;48.590;7.752;2022-10-18T06:26:38;8.68;;;3.08;;
25870;SDS011;13689;48.590;7.752;2022-10-18T06:29:04;12.73;;;4.00;;
25870;SDS011;13689;48.590;7.752;2022-10-18T06:31:29;8.38;;;2.78;;
25870;SDS011;13689;48.590;7.752;2022-10-18T06:33:55;12.50;;;3.67;;
25870;SDS011;13689;48.590;7.752;2022-10-18T06:36:24;12.20;;;3.40;;
25870;SDS011;13689;48.590;7.752;2022-10-18T06:38:50;10.70;;;3.38;;
25870;SDS011;13689;48.590;7.752;2022-10-18T06:41:16;12.52;;;3.63;;
25870;SDS011;13689;48.590;7.752;2022-10-18T06:43:52;7.75;;;3.30;;
25870;SDS011;13689;48.590;7.752;2022-10-18T06:46:21;8.73;;;3.47;;
25870;SDS011;13689;48.590;7.752;2022-10-18T06:48:47;6.25;;;2.78;;
25870;SDS011;13689;48.590;7.752;2022-10-18T06:51:12;7.40;;;3.38;;
25870;SDS011;13689;48.590;7.752;2022-10-18T06:53:39;7.78;;;3.10;;
25870;SDS011;13689;48.590;7.752;2022-10-18T06:56:10;8.15;;;3.47;;
25870;SDS011;13689;48.590;7.752;2022-10-18T06:58:36;7.70;;;3.08;;
25870;SDS011;13689;48.590;7.752;2022-10-18T07:01:08;10.18;;;5.68;;
25870;SDS011;13689;48.590;7.752;2022-10-18T07:03:36;13.43;;;4.28;;
25870;SDS011;13689;48.590;7.752;2022-10-18T07:06:03;9.02;;;3.45;;
25870;SDS011;13689;48.590;7.752;2022-10-18T07:08:30;6.28;;;3.17;;
25870;SDS011;13689;48.590;7.752;2022-10-18T07:10:56;7.05;;;3.75;;
25870;SDS011;13689;48.590;7.752;2022-10-18T07:13:22;11.10;;;3.15;;
25870;SDS011;13689;48.590;7.752;2022-10-18T07:15:48;6.60;;;3.70;;
25870;SDS011;13689;48.590;7.752;2022-10-18T07:18:23;13.65;;;3.83;;
25870;SDS011;13689;48.590;7.752;2022-10-18T07:20:49;10.27;;;3.22;;
25870;SDS011;13689;48.590;7.752;2022-10-18T07:23:14;8.98;;;4.00;;
25870;SDS011;13689;48.590;7.752;2022-10-18T07:25:40;8.95;;;3.63;;
25870;SDS011;13689;48.590;7.752;2022-10-18T07:28:06;8.63;;;3.58;;
25870;SDS011;13689;48.590;7.752;2022-10-18T07:30:31;9.88;;;3.78;;
25870;SDS011;13689;48.590;7.752;2022-10-18T07:32:58;10.45;;;3.83;;
25870;SDS011;13689;48.590;7.752;2022-10-18T07:35:23;13.65;;;4.15;;
25870;SDS011;13689;48.590;7.752;2022-10-18T07:37:49;10.68;;;3.60;;
25870;SDS011;13689;48.590;7.752;2022-10-18T07:40:15;5.63;;;3.30;;
25870;SDS011;13689;48.590;7.752;2022-10-18T07:42:40;7.55;;;3.70;;
25870;SDS011;13689;48.590;7.752;2022-10-18T07:45:06;7.38;;;3.33;;
25870;SDS011;13689;48.590;7.752;2022-10-18T07:47:32;5.32;;;3.08;;
25870;SDS011;13689;48.590;7.752;2022-10-18T07:49:58;9.88;;;3.70;;
25870;SDS011;13689;48.590;7.752;2022-10-18T07:52:23;5.03;;;3.10;;
25870;SDS011;13689;48.590;7.752;2022-10-18T07:54:49;7.97;;;3.58;;
25870;SDS011;13689;48.590;7.752;2022-10-18T07:57:14;8.38;;;3.40;;
25870;SDS011;13689;48.590;7.752;2022-10-18T07:59:40;5.93;;;3.42;;
25870;SDS011;13689;48.590;7.752;2022-10-18T08:02:08;10.88;;;3.13;;
25870;SDS011;13689;48.590;7.752;2022-10-18T08:04:34;4.15;;;2.40;;
25870;SDS011;13689;48.590;7.752;2022-10-18T08:07:01;9.40;;;3.15;;
25870;SDS011;13689;48.590;7.752;2022-10-18T08:09:26;10.70;;;3.65;;
25870;SDS011;13689;48.590;7.752;2022-10-18T08:11:52;8.38;;;3.25;;
25870;SDS011;13689;48.590;7.752;2022-10-18T08:14:18;8.32;;;3.25;;
25870;SDS011;13689;48.590;7.752;2022-10-18T08:16:43;6.85;;;3.30;;
25870;SDS011;13689;48.590;7.752;2022-10-18T08:19:10;9.35;;;2.95;;
25870;SDS011;13689;48.590;7.752;2022-10-18T08:21:36;6.75;;;2.78;;
25870;SDS011;13689;48.590;7.752;2022-10-18T08:24:01;11.52;;;5.07;;
25870;SDS011;13689;48.590;7.752;2022-10-18T08:26:27;6.57;;;2.95;;
25870;SDS011;13689;48.590;7.752;2022-10-18T08:28:53;7.13;;;3.00;;
25870;SDS011;13689;48.590;7.752;2022-10-18T08:31:18;6.72;;;3.28;;
25870;SDS011;13689;48.590;7.752;2022-10-18T08:33:47;8.23;;;3.03;;
25870;SDS011;13689;48.590;7.752;2022-10-18T08:36:14;8.02;;;3.13;;
25870;SDS011;13689;48.590;7.752;2022-10-18T08:38:41;7.55;;;4.45;;
25870;SDS011;13689;48.590;7.752;2022-10-18T08:44:03;4.97;;;2.90;;
25870;SDS011;13689;48.590;7.752;2022-10-18T08:46:50;9.07;;;2.80;;
25870;SDS011;13689;48.590;7.752;2022-10-18T08:49:24;9.88;;;4.38;;
25870;SDS011;13689;48.590;7.752;2022-10-18T08:51:54;5.88;;;4.20;;
25870;SDS011;13689;48.590;7.752;2022-10-18T08:54:33;5.13;;;3.60;;
25870;SDS011;13689;48.590;7.752;2022-10-18T08:57:01;10.85;;;3.80;;
25870;SDS011;13689;48.590;7.752;2022-10-18T08:59:38;5.55;;;3.25;;
25870;SDS011;13689;48.590;7.752;2022-10-18T09:04:50;3.75;;;2.50;;
25870;SDS011;13689;48.590;7.752;2022-10-18T09:07:55;9.15;;;2.72;;
25870;SDS011;13689;48.590;7.752;2022-10-18T09:16:00;10.85;;;2.65;;
25870;SDS011;13689;48.590;7.752;2022-10-18T09:24:21;8.77;;;4.03;;
25870;SDS011;13689;48.590;7.752;2022-10-18T09:26:52;7.80;;;3.75;;
25870;SDS011;13689;48.590;7.752;2022-10-18T09:29:45;6.95;;;3.50;;
25870;SDS011;13689;48.590;7.752;2022-10-18T09:35:20;6.80;;;2.72;;
25870;SDS011;13689;48.590;7.752;2022-10-18T09:37:49;7.13;;;2.80;;
25870;SDS011;13689;48.590;7.752;2022-10-18T09:42:51;4.75;;;2.70;;
25870;SDS011;13689;48.590;7.752;2022-10-18T09:45:40;9.65;;;3.00;;
25870;SDS011;13689;48.590;7.752;2022-10-18T09:53:19;6.65;;;2.30;;
25870;SDS011;13689;48.590;7.752;2022-10-18T09:58:30;11.95;;;2.38;;
25870;SDS011;13689;48.590;7.752;2022-10-18T10:01:23;8.10;;;2.47;;
25870;SDS011;13689;48.590;7.752;2022-10-18T10:03:51;4.60;;;2.50;;
25870;SDS011;13689;48.590;7.752;2022-10-18T10:06:21;2.60;;;2.40;;
25870;SDS011;13689;48.590;7.752;2022-10-18T10:11:46;8.05;;;2.50;;
25870;SDS011;13689;48.590;7.752;2022-10-18T10:14:17;3.13;;;2.22;;
25870;SDS011;13689;48.590;7.752;2022-10-18T10:16:58;4.45;;;1.85;;
25870;SDS011;13689;48.590;7.752;2022-10-18T10:22:01;5.10;;;2.03;;
25870;SDS011;13689;48.590;7.752;2022-10-18T10:24:51;8.15;;;2.42;;
25870;SDS011;13689;48.590;7.752;2022-10-18T10:27:20;10.73;;;2.30;;
25870;SDS011;13689;48.590;7.752;2022-10-18T10:29:53;4.20;;;2.03;;
25870;SDS011;13689;48.590;7.752;2022-10-18T10:32:22;7.60;;;2.30;;
25870;SDS011;13689;48.590;7.752;2022-10-18T10:34:49;7.20;;;2.20;;
25870;SDS011;13689;48.590;7.752;2022-10-18T10:40:03;10.32;;;3.85;;
25870;SDS011;13689;48.590;7.752;2022-10-18T10:42:59;9.48;;;3.85;;
25870;SDS011;13689;48.590;7.752;2022-10-18T10:45:54;8.85;;;3.15;;
25870;SDS011;13689;48.590;7.752;2022-10-18T10:48:38;6.80;;;2.35;;
25870;SDS011;13689;48.590;7.752;2022-10-18T10:51:09;5.75;;;2.72;;
25870;SDS011;13689;48.590;7.752;2022-10-18T10:58:34;8.00;;;2.60;;
25870;SDS011;13689;48.590;7.752;2022-10-18T11:01:17;9.93;;;2.30;;
25870;SDS011;13689;48.590;7.752;2022-10-18T11:03:53;7.82;;;1.88;;
25870;SDS011;13689;48.590;7.752;2022-10-18T11:06:31;3.70;;;2.00;;
25870;SDS011;13689;48.590;7.752;2022-10-18T11:08:58;8.52;;;1.95;;
25870;SDS011;13689;48.590;7.752;2022-10-18T11:11:29;6.75;;;1.98;;
25870;SDS011;13689;48.590;7.752;2022-10-18T11:14:02;5.13;;;2.10;;
25870;SDS011;13689;48.590;7.752;2022-10-18T11:16:41;8.73;;;2.08;;
25870;SDS011;13689;48.590;7.752;2022-10-18T11:19:31;7.18;;;2.20;;
25870;SDS011;13689;48.590;7.752;2022-10-18T11:22:01;4.88;;;1.85;;
25870;SDS011;13689;48.590;7.752;2022-10-18T11:24:30;6.95;;;1.90;;
25870;SDS011;13689;48.590;7.752;2022-10-18T11:27:01;5.18;;;1.90;;
25870;SDS011;13689;48.590;7.752;2022-10-18T11:36:03;13.75;;;2.17;;
25870;SDS011;13689;48.590;7.752;2022-10-18T11:41:37;5.00;;;1.80;;
25870;SDS011;13689;48.590;7.752;2022-10-18T11:44:30;4.25;;;2.13;;
25870;SDS011;13689;48.590;7.752;2022-10-18T11:56:06;5.03;;;1.70;;
25870;SDS011;13689;48.590;7.752;2022-10-18T12:01:19;6.60;;;2.00;;
25870;SDS011;13689;48.590;7.752;2022-10-18T12:04:13;6.65;;;2.45;;
25870;SDS011;13689;48.590;7.752;2022-10-18T12:06:45;3.72;;;2.03;;
25870;SDS011;13689;48.590;7.752;2022-10-18T12:09:36;7.15;;;2.63;;
25870;SDS011;13689;48.590;7.752;2022-10-18T12:14:34;5.13;;;1.80;;
25870;SDS011;13689;48.590;7.752;2022-10-18T12:17:06;4.70;;;1.83;;
25870;SDS011;13689;48.590;7.752;2022-10-18T12:19:42;5.22;;;1.80;;
25870;SDS011;13689;48.590;7.752;2022-10-18T12:22:26;3.42;;;1.50;;
25870;SDS011;13689;48.590;7.752;2022-10-18T12:24:56;5.80;;;1.75;;
25870;SDS011;13689;48.590;7.752;2022-10-18T12:27:35;8.48;;;1.80;;
25870;SDS011;13689;48.590;7.752;2022-10-18T12:30:06;7.88;;;1.88;;
25870;SDS011;13689;48.590;7.752;2022-10-18T12:32:55;8.43;;;1.60;;
25870;SDS011;13689;48.590;7.752;2022-10-18T12:35:30;7.70;;;1.88;;
25870;SDS011;13689;48.590;7.752;2022-10-18T12:38:19;8.55;;;1.73;;
25870;SDS011;13689;48.590;7.752;2022-10-18T12:40:50;4.18;;;1.23;;
25870;SDS011;13689;48.590;7.752;2022-10-18T12:43:22;6.97;;;1.70;;
25870;SDS011;13689;48.590;7.752;2022-10-18T12:45:58;7.90;;;1.70;;
25870;SDS011;13689;48.590;7.752;2022-10-18T12:48:29;3.22;;;1.50;;
25870;SDS011;13689;48.590;7.752;2022-10-18T12:51:05;8.07;;;1.73;;
25870;SDS011;13689;48.590;7.752;2022-10-18T12:53:37;5.85;;;1.40;;
25870;SDS011;13689;48.590;7.752;2022-10-18T12:56:31;8.35;;;1.50;;
25870;SDS011;13689;48.590;7.752;2022-10-18T13:09:29;5.72;;;1.60;;
25870;SDS011;13689;48.590;7.752;2022-10-18T13:17:30;1.50;;;1.20;;
25870;SDS011;13689;48.590;7.752;2022-10-18T13:20:10;5.05;;;1.17;;
25870;SDS011;13689;48.590;7.752;2022-10-18T13:28:34;4.45;;;1.40;;
25870;SDS011;13689;48.590;7.752;2022-10-18T13:39:34;4.25;;;1.10;;
25870;SDS011;13689;48.590;7.752;2022-10-18T13:44:27;5.63;;;1.02;;
25870;SDS011;13689;48.590;7.752;2022-10-18T14:06:05;5.45;;;1.50;;
25870;SDS011;13689;48.590;7.752;2022-10-18T14:13:27;3.30;;;1.15;;
25870;SDS011;13689;48.590;7.752;2022-10-18T14:16:05;4.85;;;1.10;;
25870;SDS011;13689;48.590;7.752;2022-10-18T14:18:40;3.30;;;1.20;;
25870;SDS011;13689;48.590;7.752;2022-10-18T14:21:10;8.27;;;1.10;;
25870;SDS011;13689;48.590;7.752;2022-10-18T14:23:43;3.50;;;1.40;;
25870;SDS011;13689;48.590;7.752;2022-10-18T14:26:12;1.83;;;1.30;;
25870;SDS011;13689;48.590;7.752;2022-10-18T14:28:40;1.85;;;1.30;;
25870;SDS011;13689;48.590;7.752;2022-10-18T14:31:10;1.73;;;1.45;;
25870;SDS011;13689;48.590;7.752;2022-10-18T14:33:40;4.80;;;1.48;;
25870;SDS011;13689;48.590;7.752;2022-10-18T14:38:50;1.83;;;1.20;;
25870;SDS011;13689;48.590;7.752;2022-10-18T14:49:10;2.63;;;0.95;;
25870;SDS011;13689;48.590;7.752;2022-10-18T14:51:38;2.53;;;1.13;;
25870;SDS011;13689;48.590;7.752;2022-10-18T14:54:06;3.90;;;1.10;;
25870;SDS011;13689;48.590;7.752;2022-10-18T14:56:38;1.20;;;1.10;;
25870;SDS011;13689;48.590;7.752;2022-10-18T15:01:36;3.45;;;1.30;;
25870;SDS011;13689;48.590;7.752;2022-10-18T15:04:08;2.83;;;1.17;;
25870;SDS011;13689;48.590;7.752;2022-10-18T15:06:35;1.40;;;1.13;;
25870;SDS011;13689;48.590;7.752;2022-10-18T15:09:06;5.93;;;1.60;;
25870;SDS011;13689;48.590;7.752;2022-10-18T15:14:00;3.92;;;1.60;;
25870;SDS011;13689;48.590;7.752;2022-10-18T15:16:30;1.42;;;0.95;;
25870;SDS011;13689;48.590;7.752;2022-10-18T15:19:52;5.35;;;1.33;;
25870;SDS011;13689;48.590;7.752;2022-10-18T15:22:05;6.72;;;1.33;;
25870;SDS011;13689;48.590;7.752;2022-10-18T15:24:33;4.90;;;1.25;;
25870;SDS011;13689;48.590;7.752;2022-10-18T15:27:12;3.20;;;1.42;;
25870;SDS011;13689;48.590;7.752;2022-10-18T15:29:44;4.95;;;1.20;;
25870;SDS011;13689;48.590;7.752;2022-10-18T15:32:14;3.28;;;0.95;;
25870;SDS011;13689;48.590;7.752;2022-10-18T15:34:40;4.20;;;1.05;;
